createdAt,value
2022-08-22T00:00:34.231Z,99934.25
2022-08-22T00:03:04.651Z,99905.84
2022-08-22T00:06:12.585Z,99930.78
2022-08-22T00:12:20.350Z,99943.41
2022-08-22T00:15:31.512Z,99912.97
2022-08-22T00:18:23.553Z,99943.13
2022-08-22T00:21:13.117Z,99938.91
2022-08-22T00:24:10.515Z,99907.69
2022-08-22T00:26:52.691Z,99929.06
2022-08-22T00:29:28.730Z,99932.25
2022-08-22T00:32:40.342Z,99920.25
2022-08-22T00:35:40.541Z,99920.88
2022-08-22T00:38:22.795Z,99908.16
2022-08-22T00:41:37.849Z,99946.38
2022-08-22T00:44:48.307Z,99942.59
2022-08-22T00:47:38.788Z,99952.72
2022-08-22T00:50:42.859Z,99936.88
2022-08-22T00:53:49.654Z,99931.06
2022-08-22T00:56:35.771Z,99931.50
2022-08-22T00:59:08.547Z,99946.25
2022-08-22T01:02:05.853Z,99925.38
2022-08-22T01:04:52.495Z,99969.50
2022-08-22T01:07:23.810Z,99974.94
2022-08-22T01:16:11.494Z,99957.53
2022-08-22T01:19:00.415Z,99977.53
2022-08-22T01:22:06.982Z,99958.38
2022-08-22T01:25:29.853Z,99976.47
2022-08-22T01:28:37.288Z,99969.38
2022-08-22T01:31:34.578Z,99970.41
2022-08-22T01:34:15.532Z,99956.34
2022-08-22T01:37:03.021Z,99942.75
2022-08-22T01:39:40.558Z,99954.94
2022-08-22T01:42:30.968Z,99956.13
2022-08-22T01:45:25.663Z,99948.81
2022-08-22T01:48:07.605Z,99937.97
2022-08-22T01:50:48.966Z,99944.19
2022-08-22T01:53:24.842Z,99947.28
2022-08-22T01:56:09.231Z,99934.00
2022-08-22T01:58:45.870Z,99932.19
2022-08-22T02:01:48.624Z,99946.66
2022-08-22T02:04:36.185Z,99915.94
2022-08-22T02:07:14.737Z,99922.81
2022-08-22T02:10:03.340Z,99944.88
2022-08-22T02:12:53.175Z,99947.59
2022-08-22T02:15:51.925Z,99926.28
2022-08-22T02:18:41.074Z,99932.94
2022-08-22T02:21:22.743Z,99944.28
2022-08-22T02:24:04.161Z,99944.56
2022-08-22T02:30:14.464Z,99945.00
2022-08-22T02:32:42.256Z,99963.22
2022-08-22T02:35:21.865Z,99953.59
2022-08-22T02:38:25.557Z,99927.94
2022-08-22T02:41:21.223Z,99940.88
2022-08-22T02:44:19.699Z,99913.53
2022-08-22T02:46:55.013Z,99952.56
2022-08-22T02:50:00.063Z,99938.28
2022-08-22T02:52:44.001Z,99912.31
2022-08-22T02:55:36.255Z,99961.75
2022-08-22T02:58:24.827Z,99942.91
2022-08-22T03:01:26.384Z,99948.94
2022-08-22T03:10:30.344Z,99957.84
2022-08-22T03:13:02.174Z,99967.97
2022-08-22T03:18:36.085Z,99960.72
2022-08-22T03:21:35.983Z,99960.25
2022-08-22T03:24:30.649Z,99978.59
2022-08-22T03:27:32.644Z,99968.25
2022-08-22T03:30:21.886Z,99961.00
2022-08-22T03:33:01.845Z,99973.69
2022-08-22T03:35:35.466Z,99947.66
2022-08-22T03:38:20.271Z,99960.88
2022-08-22T03:41:24.216Z,99968.41
2022-08-22T03:44:09.456Z,99955.13
2022-08-22T03:47:10.159Z,99942.44
2022-08-22T03:50:28.817Z,99973.56
2022-08-22T03:53:19.383Z,99961.94
2022-08-22T03:56:09.704Z,99969.47
2022-08-22T03:59:02.654Z,99979.22
2022-08-22T04:02:02.516Z,99957.09
2022-08-22T04:05:06.483Z,99983.69
2022-08-22T04:11:03.572Z,99983.53
2022-08-22T04:16:48.915Z,99964.50
2022-08-22T04:19:37.018Z,99983.09
2022-08-22T04:25:30.259Z,99974.13
2022-08-22T04:28:09.375Z,99975.34
2022-08-22T04:31:02.188Z,99944.59
2022-08-22T04:36:54.307Z,99981.00
2022-08-22T04:39:50.013Z,99977.34
2022-08-22T04:51:04.569Z,99975.97
2022-08-22T04:54:29.793Z,99979.41
2022-08-22T05:00:06.660Z,99981.69
2022-08-22T05:05:28.194Z,99979.34
2022-08-22T05:10:47.546Z,99979.13
2022-08-22T05:16:22.597Z,99960.16
2022-08-22T05:19:05.847Z,99955.09
2022-08-22T05:24:28.296Z,99955.75
2022-08-22T05:29:46.277Z,99959.69
2022-08-22T14:08:18.588Z,99901.34
2022-08-22T14:13:50.100Z,99925.09
2022-08-22T14:20:01.899Z,99912.31
2022-08-22T14:22:35.741Z,99906.28
2022-08-22T14:25:22.230Z,99939.75
2022-08-22T14:27:59.851Z,99936.47
2022-08-22T14:30:51.302Z,99901.94
2022-08-22T14:33:49.907Z,99910.00
2022-08-22T14:36:57.422Z,99915.50
2022-08-22T14:39:58.725Z,99914.44
2022-08-22T14:42:47.784Z,99904.88
2022-08-22T15:52:25.869Z,99949.84
2022-08-22T15:54:57.015Z,99950.97
2022-08-22T15:57:36.493Z,99954.00
2022-08-22T16:00:43.472Z,99916.41
2022-08-22T16:03:33.777Z,99923.59
2022-08-22T16:08:58.611Z,99939.63
2022-08-22T16:14:54.125Z,99969.03
2022-08-22T16:17:34.661Z,99963.81
2022-08-22T16:23:05.959Z,99965.78
2022-08-22T16:28:57.508Z,99970.19
2022-08-22T16:31:35.083Z,99969.66
2022-08-22T16:34:26.153Z,99975.41
2022-08-22T16:40:05.285Z,99977.91
2022-08-22T16:54:12.383Z,99977.38
2022-08-22T16:57:50.533Z,99942.16
2022-08-22T17:07:26.885Z,99986.97
2022-08-22T17:13:19.411Z,99980.91
2022-08-22T17:16:27.326Z,99982.53
2022-08-22T17:53:52.388Z,99994.41
2022-08-22T17:57:16.400Z,100004.56
2022-08-22T17:59:57.795Z,99984.44
2022-08-22T18:02:35.757Z,99983.06
2022-08-22T18:08:37.752Z,99988.53
